Terminal Aerodrome Forecast
Issued by NWS Cleveland, OH

Home | Current Version | Previous Version | Text Only | Print | Product List | Glossary On
Versions: 1 2 3 4 5 6 7 8 9 10 11 12 13 14 15 16 17 18 19 20 21 22 23 24 25 26 27
000
FTUS41 KCLE 161200 AAA
TAFYNG
TAF AMD
KYNG 161223Z 1612/1712 VRB04KT 1/2SM FG BKN001 OVC020
     FM161400 33005KT 3SM BR BKN003 OVC025
     FM161500 33005KT P6SM SCT012 BKN025
     FM161600 33006KT P6SM BKN045
     FM161800 33008KT P6SM SCT035
     FM170100 31004KT P6SM SKC
     FM170900 11002KT 2SM BR SCT003=

USA.gov is the U.S. government's official web portal to all federal, state and local government web resources and services.